createdAt,value
2022-11-02T00:02:11.309Z,99.90
2022-11-02T00:04:38.231Z,99.90
2022-11-02T00:07:05.050Z,99.90
2022-11-02T00:09:31.863Z,99.90
2022-11-02T00:11:58.714Z,99.90
2022-11-02T00:14:25.734Z,99.90
2022-11-02T00:16:52.705Z,99.90
2022-11-02T00:19:19.595Z,99.90
2022-11-02T00:21:46.695Z,99.90
2022-11-02T00:24:13.740Z,99.90
2022-11-02T00:26:40.561Z,99.90
2022-11-02T00:29:08.361Z,99.90
2022-11-02T00:31:35.219Z,99.90
2022-11-02T00:34:02.089Z,99.90
2022-11-02T00:36:29.029Z,99.90
2022-11-02T00:38:55.838Z,99.90
2022-11-02T00:41:22.674Z,99.90
2022-11-02T00:43:49.449Z,99.90
2022-11-02T00:46:16.310Z,99.90
2022-11-02T00:48:43.150Z,99.90
2022-11-02T00:51:10.002Z,99.90
2022-11-02T00:53:36.809Z,99.90
2022-11-02T00:56:03.697Z,99.90
2022-11-02T00:58:30.501Z,99.90
2022-11-02T01:00:57.339Z,99.90
2022-11-02T01:03:24.210Z,99.90
2022-11-02T01:05:51.113Z,99.90
2022-11-02T01:08:17.921Z,99.90
2022-11-02T01:10:48.091Z,99.90
2022-11-02T01:13:15.511Z,99.90
2022-11-02T01:15:43.216Z,99.90
2022-11-02T01:18:09.983Z,99.90
2022-11-02T01:20:36.785Z,99.90
2022-11-02T01:23:03.672Z,99.90
2022-11-02T01:25:30.514Z,99.90
2022-11-02T01:27:57.555Z,99.90
2022-11-02T01:30:24.359Z,99.90
2022-11-02T01:32:51.201Z,99.90
2022-11-02T01:35:18.024Z,99.90
2022-11-02T01:37:44.846Z,99.90
2022-11-02T01:40:11.954Z,99.90
2022-11-02T01:42:38.756Z,99.90
2022-11-02T01:45:06.100Z,99.90
2022-11-02T01:47:38.116Z,99.90
2022-11-02T01:50:11.652Z,99.90
2022-11-02T01:52:39.421Z,99.90
2022-11-02T01:55:29.086Z,99.90
2022-11-02T01:58:09.745Z,99.90
2022-11-02T02:00:38.686Z,99.90
2022-11-02T02:03:19.584Z,99.90
2022-11-02T02:06:12.672Z,99.90
2022-11-02T02:08:48.266Z,99.90
2022-11-02T02:11:28.801Z,99.90
2022-11-02T02:14:14.539Z,99.90
2022-11-02T02:17:12.310Z,99.90
2022-11-02T02:20:07.803Z,99.90
2022-11-02T02:23:08.942Z,99.90
2022-11-02T02:25:38.481Z,99.90
2022-11-02T02:28:25.293Z,99.90
2022-11-02T02:31:06.742Z,99.90
2022-11-02T02:33:44.736Z,99.90
2022-11-02T02:36:21.720Z,99.90
2022-11-02T02:39:00.659Z,99.90
2022-11-02T02:41:41.000Z,99.90
2022-11-02T02:44:22.464Z,99.90
2022-11-02T02:47:00.912Z,99.90
2022-11-02T02:49:44.911Z,99.90
2022-11-02T02:52:13.444Z,99.90
2022-11-02T02:54:43.323Z,99.90
2022-11-02T02:57:17.214Z,99.90
2022-11-02T02:59:46.374Z,99.90
2022-11-02T03:02:28.362Z,99.90
2022-11-02T03:04:55.294Z,99.90
2022-11-02T03:07:32.914Z,99.90
2022-11-02T03:10:30.076Z,99.90
2022-11-02T03:13:10.156Z,99.90
2022-11-02T03:15:56.489Z,99.90
2022-11-02T03:18:31.894Z,99.90
2022-11-02T03:21:30.551Z,99.90
2022-11-02T03:24:15.189Z,99.90
2022-11-02T03:26:41.996Z,99.90
2022-11-02T03:29:25.761Z,99.90
2022-11-02T03:32:00.365Z,99.90
2022-11-02T03:34:49.045Z,99.90
2022-11-02T03:37:30.665Z,99.90
2022-11-02T03:40:07.040Z,99.90
2022-11-02T03:42:35.431Z,99.90
2022-11-02T03:45:16.004Z,99.90
2022-11-02T03:47:47.203Z,99.90
2022-11-02T03:50:18.312Z,99.90
2022-11-02T03:52:47.205Z,99.90
2022-11-02T03:55:20.717Z,99.90
2022-11-02T03:57:49.961Z,99.90
2022-11-02T04:00:29.348Z,99.90
2022-11-02T04:03:00.050Z,99.90
2022-11-02T04:05:32.107Z,99.90
2022-11-02T04:08:18.090Z,99.90
2022-11-02T04:11:03.320Z,99.90
2022-11-02T04:13:49.022Z,99.90
2022-11-02T04:16:16.593Z,99.90
2022-11-02T04:19:02.788Z,99.90
2022-11-02T04:21:30.235Z,99.90
2022-11-02T04:24:15.716Z,99.90
2022-11-02T04:26:42.815Z,99.90
2022-11-02T04:29:09.973Z,99.90
2022-11-02T04:31:36.978Z,99.90
2022-11-02T04:34:03.868Z,99.90
2022-11-02T04:36:31.590Z,99.90
2022-11-02T04:38:59.256Z,99.90
2022-11-02T04:41:41.925Z,99.90
2022-11-02T04:44:14.569Z,99.90
2022-11-02T04:46:42.939Z,99.90
2022-11-02T04:49:11.407Z,99.90
2022-11-02T04:51:41.696Z,99.90
2022-11-02T04:54:10.231Z,99.90
2022-11-02T04:56:37.032Z,99.90
2022-11-02T04:59:03.929Z,99.90
2022-11-02T05:01:31.052Z,99.90
2022-11-02T05:03:58.315Z,99.90
2022-11-02T05:06:25.905Z,99.90
2022-11-02T05:08:53.147Z,99.90
2022-11-02T05:11:20.048Z,99.90
2022-11-02T05:13:47.107Z,99.90
2022-11-02T05:16:16.397Z,99.90
2022-11-02T05:18:43.779Z,99.90
2022-11-02T05:21:12.117Z,99.90
2022-11-02T05:23:39.619Z,99.90
2022-11-02T05:26:10.434Z,99.90
2022-11-02T05:28:37.352Z,99.90
2022-11-02T05:31:04.905Z,99.90
2022-11-02T05:33:32.670Z,99.90
2022-11-02T05:36:00.252Z,99.90
2022-11-02T05:38:28.304Z,99.90
2022-11-02T05:40:57.300Z,99.90
2022-11-02T05:43:24.822Z,99.90
2022-11-02T05:46:00.138Z,99.90
2022-11-02T05:48:30.363Z,99.90
2022-11-02T05:51:02.637Z,99.90
2022-11-02T05:53:34.318Z,99.90
2022-11-02T05:56:02.464Z,99.90
2022-11-02T05:58:29.661Z,99.90
2022-11-02T06:01:00.260Z,99.90
2022-11-02T06:03:27.101Z,99.90
2022-11-02T06:05:58.182Z,99.90
2022-11-02T06:08:25.141Z,99.90
2022-11-02T06:10:52.087Z,99.00
2022-11-02T06:13:18.912Z,87.70
2022-11-02T06:15:45.798Z,79.60
2022-11-02T06:18:12.681Z,72.00
2022-11-02T06:20:39.539Z,68.50
2022-11-02T06:23:06.708Z,62.00
2022-11-02T06:25:33.760Z,67.30
2022-11-02T06:28:00.597Z,72.20
2022-11-02T06:30:27.420Z,67.70
2022-11-02T06:32:55.027Z,66.10
2022-11-02T06:35:23.073Z,74.60
2022-11-02T06:37:49.902Z,68.20
2022-11-02T06:40:18.426Z,82.40
2022-11-02T06:43:03.478Z,86.90
2022-11-02T06:45:34.184Z,77.40
2022-11-02T06:48:01.325Z,82.10
2022-11-02T06:50:29.742Z,80.20
2022-11-02T06:52:56.578Z,62.00
2022-11-02T06:55:23.365Z,60.30
2022-11-02T06:57:50.184Z,66.50
2022-11-02T07:00:20.914Z,70.10
2022-11-02T07:03:05.045Z,67.70
2022-11-02T07:05:33.029Z,55.50
2022-11-02T07:07:59.812Z,53.20
2022-11-02T07:10:27.510Z,56.10
2022-11-02T07:12:56.563Z,59.40
2022-11-02T07:15:25.889Z,59.10
2022-11-02T07:17:53.169Z,59.50
2022-11-02T07:20:20.098Z,54.60
2022-11-02T07:22:57.896Z,53.80
2022-11-02T07:25:27.176Z,55.50
2022-11-02T07:27:54.885Z,58.30
2022-11-02T07:30:21.934Z,57.60
2022-11-02T07:32:48.954Z,55.00
2022-11-02T07:35:17.617Z,53.40
2022-11-02T07:37:45.168Z,52.40
2022-11-02T07:40:14.318Z,48.30
2022-11-02T07:42:46.383Z,48.40
2022-11-02T07:45:13.564Z,44.70
2022-11-02T07:47:44.864Z,41.30
2022-11-02T07:50:13.878Z,38.10
2022-11-02T07:52:54.379Z,34.50
2022-11-02T07:55:23.670Z,31.40
2022-11-02T07:57:58.954Z,26.70
2022-11-02T08:00:27.938Z,24.00
2022-11-02T08:02:59.238Z,32.20
2022-11-02T08:05:27.656Z,29.70
2022-11-02T08:08:06.054Z,26.50
2022-11-02T08:10:37.451Z,19.70
2022-11-02T08:13:08.727Z,16.90
2022-11-02T08:15:35.576Z,11.30
2022-11-02T08:18:12.152Z,1.00
2022-11-02T08:20:39.369Z,1.00
2022-11-02T08:23:07.804Z,1.00
2022-11-02T08:25:35.286Z,1.00
2022-11-02T08:28:03.174Z,1.00
2022-11-02T08:30:31.580Z,1.00
2022-11-02T08:33:06.278Z,1.00
2022-11-02T08:35:34.635Z,1.00
2022-11-02T08:38:01.689Z,1.00
2022-11-02T08:40:28.848Z,1.00
2022-11-02T08:43:16.121Z,1.00
2022-11-02T08:46:16.364Z,1.00
2022-11-02T08:48:32.340Z,1.00
2022-11-02T08:50:59.284Z,1.00
2022-11-02T08:53:26.339Z,1.00
2022-11-02T08:55:53.119Z,99.90
2022-11-02T08:58:19.960Z,42.00
2022-11-02T09:00:46.835Z,1.00
2022-11-02T09:03:15.649Z,1.00
2022-11-02T09:05:47.017Z,1.00
2022-11-02T09:08:17.019Z,1.00
2022-11-02T09:10:44.732Z,1.00
2022-11-02T09:13:14.177Z,99.90
2022-11-02T09:15:41.860Z,99.90
2022-11-02T09:18:09.691Z,99.90
2022-11-02T09:20:37.127Z,99.90
2022-11-02T09:23:04.575Z,99.90
2022-11-02T09:25:31.488Z,99.90
2022-11-02T09:27:58.980Z,99.90
2022-11-02T09:30:27.300Z,99.90
2022-11-02T09:32:58.257Z,99.90
2022-11-02T09:35:30.600Z,99.90
2022-11-02T09:37:57.942Z,99.90
2022-11-02T09:40:30.315Z,99.90
2022-11-02T09:43:10.218Z,99.90
2022-11-02T09:46:00.200Z,99.90
2022-11-02T09:48:51.099Z,99.90
2022-11-02T09:51:34.391Z,99.90
2022-11-02T09:54:14.677Z,99.90
2022-11-02T09:56:45.206Z,99.90
2022-11-02T09:59:23.575Z,99.90
2022-11-02T10:02:12.641Z,90.90
2022-11-02T10:04:57.090Z,88.50
2022-11-02T10:07:42.536Z,83.50
2022-11-02T10:10:27.013Z,91.10
2022-11-02T10:12:53.853Z,56.70
2022-11-02T10:15:44.958Z,51.00
2022-11-02T10:18:24.602Z,51.90
2022-11-02T10:20:58.204Z,51.80
2022-11-02T10:23:47.634Z,44.40
2022-11-02T10:26:30.523Z,47.90
2022-11-02T10:29:06.920Z,43.60
2022-11-02T10:31:34.599Z,35.30
2022-11-02T10:34:13.766Z,33.40
2022-11-02T10:36:52.445Z,44.20
2022-11-02T10:39:41.105Z,52.70
2022-11-02T10:42:29.461Z,43.90
2022-11-02T10:45:31.064Z,37.30
2022-11-02T10:48:28.540Z,30.50
2022-11-02T10:51:07.230Z,24.50
2022-11-02T10:53:46.026Z,19.10
2022-11-02T10:56:32.808Z,6.50
2022-11-02T10:59:09.208Z,8.70
2022-11-02T11:01:36.329Z,2.60
2022-11-02T11:04:05.736Z,1.00
2022-11-02T11:06:43.546Z,8.50
2022-11-02T11:09:33.846Z,21.70
2022-11-02T11:12:04.612Z,49.10
2022-11-02T11:20:35.089Z,27.30
2022-11-02T11:23:22.013Z,22.10
2022-11-02T11:26:04.003Z,17.90
2022-11-02T11:28:53.162Z,16.50
2022-11-02T11:31:20.131Z,12.40
2022-11-02T11:33:56.537Z,4.10
2022-11-02T11:36:33.462Z,1.00
2022-11-02T11:39:07.948Z,1.00
2022-11-02T11:41:39.815Z,1.00
2022-11-02T11:44:13.791Z,1.00
2022-11-02T11:46:54.115Z,1.00
2022-11-02T11:49:48.030Z,1.00
2022-11-02T11:52:31.145Z,1.00
2022-11-02T11:55:19.671Z,1.00
2022-11-02T11:57:46.497Z,1.00
2022-11-02T12:00:34.549Z,1.00
2022-11-02T12:03:10.921Z,1.00
2022-11-02T12:06:19.082Z,1.00
2022-11-02T12:09:11.877Z,1.00
2022-11-02T12:12:33.956Z,1.00
2022-11-02T12:15:16.351Z,1.00
2022-11-02T12:18:13.983Z,1.00
2022-11-02T12:21:29.957Z,1.00
2022-11-02T12:24:15.584Z,1.00
2022-11-02T12:27:21.544Z,1.00
2022-11-02T12:30:09.056Z,1.00
2022-11-02T12:32:38.834Z,1.00
2022-11-02T12:35:32.692Z,1.00
2022-11-02T12:38:02.519Z,1.00
2022-11-02T12:41:02.699Z,1.00
2022-11-02T12:43:40.358Z,1.00
2022-11-02T12:46:15.764Z,1.00
2022-11-02T12:49:03.724Z,1.00
2022-11-02T12:51:35.238Z,1.00
2022-11-02T12:54:12.266Z,1.00
2022-11-02T12:56:39.116Z,1.00
2022-11-02T12:59:06.667Z,1.00
2022-11-02T13:01:41.092Z,1.00
2022-11-02T13:04:30.382Z,1.00
2022-11-02T13:07:13.669Z,1.00
2022-11-02T13:09:51.510Z,1.00
2022-11-02T13:12:22.725Z,1.00
2022-11-02T13:14:52.926Z,1.00
2022-11-02T13:17:53.724Z,1.00
2022-11-02T13:20:24.643Z,1.00
2022-11-02T13:23:04.839Z,1.00
2022-11-02T13:25:46.882Z,1.00
2022-11-02T13:28:43.041Z,1.00
2022-11-02T13:31:17.832Z,1.00
2022-11-02T13:33:51.306Z,1.00
2022-11-02T13:36:18.628Z,1.00
2022-11-02T13:38:51.288Z,1.00
2022-11-02T13:41:26.924Z,1.00
2022-11-02T13:44:18.776Z,1.00
2022-11-02T13:47:06.487Z,1.00
2022-11-02T13:49:53.938Z,1.00
2022-11-02T13:52:34.830Z,1.00
2022-11-02T13:55:04.587Z,1.00
2022-11-02T13:57:36.056Z,1.00
2022-11-02T14:00:25.921Z,1.00
2022-11-02T14:03:28.339Z,1.00
2022-11-02T14:05:58.937Z,1.00
2022-11-02T14:08:30.759Z,1.00
2022-11-02T14:11:09.788Z,1.00
2022-11-02T14:13:52.203Z,1.00
2022-11-02T14:16:46.625Z,1.00
2022-11-02T14:19:20.967Z,1.00
2022-11-02T14:21:50.983Z,1.00
2022-11-02T14:24:32.982Z,1.00
2022-11-02T14:27:25.709Z,1.00
2022-11-02T14:29:54.586Z,1.00
2022-11-02T14:32:21.349Z,1.00
2022-11-02T14:35:04.440Z,1.00
2022-11-02T14:37:49.243Z,1.00
2022-11-02T14:40:28.351Z,1.00
2022-11-02T14:43:32.362Z,1.00
2022-11-02T14:46:09.413Z,1.00
2022-11-02T14:48:52.182Z,1.00
2022-11-02T14:51:34.095Z,1.00
2022-11-02T14:54:05.535Z,1.00
2022-11-02T14:56:56.109Z,1.00
2022-11-02T14:59:26.120Z,1.00
2022-11-02T15:02:17.169Z,1.00
2022-11-02T15:04:49.910Z,1.30
2022-11-02T15:07:32.822Z,3.30
2022-11-02T15:10:01.368Z,5.80
2022-11-02T15:12:31.688Z,8.60
2022-11-02T15:15:30.737Z,14.10
2022-11-02T15:17:57.494Z,19.60
2022-11-02T15:20:30.460Z,21.00
2022-11-02T15:23:30.349Z,21.20
2022-11-02T15:25:59.360Z,26.40
2022-11-02T15:28:29.752Z,35.20
2022-11-02T15:31:06.531Z,54.70
2022-11-02T15:33:43.291Z,94.50
2022-11-02T15:36:37.881Z,99.90
2022-11-02T15:39:10.680Z,99.90
2022-11-02T15:42:33.999Z,99.90
2022-11-02T15:45:56.939Z,99.90
2022-11-02T15:48:31.782Z,99.90
2022-11-02T15:51:04.748Z,99.90
2022-11-02T15:54:10.134Z,1.00
2022-11-02T15:57:18.313Z,1.00
2022-11-02T16:00:07.051Z,1.00
2022-11-02T16:02:38.311Z,1.00
2022-11-02T16:05:08.984Z,1.00
2022-11-02T16:07:57.397Z,1.00
2022-11-02T16:10:32.375Z,1.00
2022-11-02T16:13:13.452Z,55.80
2022-11-02T16:15:43.982Z,99.90
2022-11-02T16:18:29.169Z,99.90
2022-11-02T16:21:02.267Z,99.90
2022-11-02T16:23:31.586Z,1.00
2022-11-02T16:26:00.763Z,1.00
2022-11-02T16:28:36.235Z,1.00
2022-11-02T16:31:25.070Z,1.00
2022-11-02T16:33:54.617Z,37.50
2022-11-02T16:36:24.290Z,99.90
2022-11-02T16:39:37.597Z,99.90
2022-11-02T16:42:14.078Z,1.00
2022-11-02T16:44:41.077Z,1.00
2022-11-02T16:47:08.110Z,1.00
2022-11-02T16:49:56.449Z,1.00
2022-11-02T16:52:27.711Z,1.00
2022-11-02T16:54:54.531Z,26.80
2022-11-02T16:57:25.086Z,99.90
2022-11-02T16:59:56.110Z,99.90
2022-11-02T17:02:43.859Z,1.00
2022-11-02T17:05:40.097Z,1.00
2022-11-02T17:08:27.264Z,1.00
2022-11-02T17:10:59.482Z,1.00
2022-11-02T17:13:29.367Z,1.00
2022-11-02T17:16:01.317Z,1.00
2022-11-02T17:18:30.201Z,1.00
2022-11-02T17:21:21.063Z,99.90
2022-11-02T17:23:48.545Z,99.90
2022-11-02T17:26:27.229Z,99.90
2022-11-02T17:29:02.977Z,99.90
2022-11-02T17:31:35.399Z,99.90
2022-11-02T17:34:15.492Z,99.90
2022-11-02T17:36:49.530Z,99.90
2022-11-02T17:39:18.311Z,1.00
2022-11-02T17:42:08.164Z,1.00
2022-11-02T17:44:34.989Z,1.00
2022-11-02T17:47:01.789Z,1.00
2022-11-02T17:49:28.633Z,99.90
2022-11-02T17:51:55.667Z,3.30
2022-11-02T17:54:22.468Z,99.90
2022-11-02T17:56:49.320Z,99.90
2022-11-02T17:59:16.159Z,1.00
2022-11-02T18:01:43.397Z,1.00
2022-11-02T18:04:10.285Z,1.00
2022-11-02T18:06:37.076Z,99.90
2022-11-02T18:09:15.353Z,99.90
2022-11-02T18:11:42.233Z,1.00
2022-11-02T18:14:14.346Z,1.00
2022-11-02T18:16:41.156Z,1.00
2022-11-02T18:19:08.354Z,33.80
2022-11-02T18:21:35.264Z,99.90
2022-11-02T18:24:02.138Z,1.00
2022-11-02T18:26:28.986Z,1.00
2022-11-02T18:28:56.207Z,1.00
2022-11-02T18:31:23.064Z,1.00
2022-11-02T18:33:52.535Z,99.90
2022-11-02T18:36:19.670Z,1.00
2022-11-02T18:38:46.557Z,1.00
2022-11-02T18:41:32.203Z,1.00
2022-11-02T18:44:14.830Z,1.00
2022-11-02T18:46:41.932Z,1.00
2022-11-02T18:49:08.919Z,29.40
2022-11-02T18:51:35.863Z,93.10
2022-11-02T18:54:06.255Z,99.90
2022-11-02T18:56:33.438Z,99.90
2022-11-02T18:59:00.309Z,99.90
2022-11-02T19:01:28.328Z,99.90
2022-11-02T19:03:57.930Z,99.90
2022-11-02T19:06:45.155Z,99.90
2022-11-02T19:09:20.564Z,99.90
2022-11-02T19:11:53.576Z,99.90
2022-11-02T19:14:21.838Z,99.90
2022-11-02T19:16:49.000Z,16.40
2022-11-02T19:19:15.966Z,1.00
2022-11-02T19:21:43.041Z,99.90
2022-11-02T19:24:10.318Z,99.90
2022-11-02T19:26:37.943Z,1.00
2022-11-02T19:29:06.588Z,1.00
2022-11-02T19:31:35.284Z,1.00
2022-11-02T19:34:02.648Z,1.00
2022-11-02T19:36:29.828Z,1.00
2022-11-02T19:38:58.325Z,1.00
2022-11-02T19:41:25.183Z,1.00
2022-11-02T19:43:52.079Z,1.00
2022-11-02T19:46:21.140Z,1.00
2022-11-02T19:48:48.737Z,99.90
2022-11-02T19:51:20.569Z,99.90
2022-11-02T19:53:53.044Z,1.00
2022-11-02T19:56:21.050Z,1.00
2022-11-02T19:58:50.031Z,1.00
2022-11-02T20:01:20.154Z,1.00
2022-11-02T20:03:47.989Z,1.00
2022-11-02T20:06:17.824Z,99.90
2022-11-02T20:08:45.084Z,99.90
2022-11-02T20:11:15.386Z,1.00
2022-11-02T20:13:44.141Z,1.00
2022-11-02T20:16:13.473Z,1.00
2022-11-02T20:18:42.852Z,1.00
2022-11-02T20:21:14.817Z,1.00
2022-11-02T20:23:42.753Z,1.00
2022-11-02T20:26:16.269Z,1.00
2022-11-02T20:28:44.801Z,1.00
2022-11-02T20:31:17.305Z,1.00
2022-11-02T20:33:44.661Z,1.00
2022-11-02T20:36:11.539Z,1.00
2022-11-02T20:38:39.055Z,1.00
2022-11-02T20:41:08.946Z,1.00
2022-11-02T20:43:36.946Z,1.00
2022-11-02T20:46:31.367Z,1.00
2022-11-02T20:48:55.545Z,1.00
2022-11-02T20:51:22.965Z,1.00
2022-11-02T20:53:49.781Z,1.00
2022-11-02T20:56:18.026Z,1.00
2022-11-02T20:58:54.417Z,1.00
2022-11-02T21:01:22.608Z,1.00
2022-11-02T21:03:49.623Z,1.00
2022-11-02T21:06:16.446Z,1.00
2022-11-02T21:08:43.600Z,1.00
2022-11-02T21:11:29.447Z,1.00
2022-11-02T21:13:57.018Z,1.00
2022-11-02T21:16:23.985Z,1.00
2022-11-02T21:18:50.795Z,1.00
2022-11-02T21:21:19.406Z,1.00
2022-11-02T21:23:46.726Z,1.00
2022-11-02T21:26:15.093Z,1.00
2022-11-02T21:28:44.666Z,1.00
2022-11-02T21:31:17.465Z,1.00
2022-11-02T21:33:45.787Z,1.00
2022-11-02T21:36:13.673Z,1.00
2022-11-02T21:38:40.845Z,1.00
2022-11-02T21:41:09.405Z,1.00
2022-11-02T21:43:37.836Z,1.00
2022-11-02T21:46:06.118Z,1.00
2022-11-02T21:48:35.121Z,1.00
2022-11-02T21:51:06.534Z,1.00
2022-11-02T21:53:35.337Z,1.00
2022-11-02T21:56:17.880Z,1.00
2022-11-02T21:58:46.562Z,1.00
2022-11-02T22:01:35.612Z,1.00
2022-11-02T22:04:03.426Z,1.00
2022-11-02T22:06:31.680Z,1.00
2022-11-02T22:09:02.464Z,1.00
2022-11-02T22:11:29.555Z,1.00
2022-11-02T22:14:00.827Z,1.00
2022-11-02T22:16:30.021Z,1.00
2022-11-02T22:18:59.099Z,1.00
2022-11-02T22:21:28.141Z,1.00
2022-11-02T22:23:56.553Z,1.00
2022-11-02T22:26:25.155Z,1.00
2022-11-02T22:28:52.910Z,1.00
2022-11-02T22:31:25.290Z,1.00
2022-11-02T22:33:54.498Z,1.00
2022-11-02T22:36:24.075Z,1.00
2022-11-02T22:38:53.539Z,1.00
2022-11-02T22:41:39.033Z,1.00
2022-11-02T22:44:13.192Z,1.00
2022-11-02T22:46:50.842Z,1.00
2022-11-02T22:49:19.477Z,1.00
2022-11-02T22:51:48.848Z,1.00
2022-11-02T22:54:17.816Z,1.00
2022-11-02T22:56:46.891Z,1.00
2022-11-02T22:59:14.224Z,1.00
2022-11-02T23:01:41.404Z,1.00
2022-11-02T23:04:10.078Z,1.00
2022-11-02T23:06:36.982Z,1.00
2022-11-02T23:09:04.461Z,1.00
2022-11-02T23:11:36.134Z,1.00
2022-11-02T23:14:06.861Z,1.00
2022-11-02T23:16:39.674Z,1.00
2022-11-02T23:19:31.653Z,1.00
2022-11-02T23:22:31.747Z,1.00
2022-11-02T23:25:15.014Z,1.00
2022-11-02T23:28:13.935Z,1.00
2022-11-02T23:30:59.732Z,1.00
2022-11-02T23:33:31.622Z,1.00
2022-11-02T23:36:11.248Z,1.00
2022-11-02T23:39:01.474Z,1.00
2022-11-02T23:41:30.300Z,1.00
2022-11-02T23:44:12.806Z,1.00
2022-11-02T23:46:45.019Z,1.00
2022-11-02T23:49:12.648Z,1.00
2022-11-02T23:51:58.402Z,1.00
2022-11-02T23:54:43.632Z,1.00
2022-11-02T23:57:10.500Z,1.00
2022-11-02T23:59:37.336Z,1.00
